Time;durP1;ratioP1;P1;durP2;ratioP2;P2;SDS_P1;SDS_P2;PMS_P1;PMS_P2;Temp;Humidity;BMP_temperature;BMP_pressure;BME280_temperature;BME280_humidity;BME280_pressure;Samples;Min_cycle;Max_cycle;Signal;HPM_P1;HPM_P2
2024/02/02 00:00:00;;;;;;;1.20;1.00;;;6.10;99.90;5.00;101691.00;;;;4889728;28;121672;-66
2024/02/02 00:02:26;;;;;;;4.77;1.60;;;5.30;99.90;5.00;101686.00;;;;4890492;28;94169;-66
2024/02/02 00:04:51;;;;;;;3.80;1.53;;;5.20;99.90;5.00;101684.00;;;;4889696;28;109787;-67
2024/02/02 00:07:17;;;;;;;7.27;1.73;;;6.00;99.90;5.00;101679.00;;;;4889265;28;109719;-66
2024/02/02 00:09:45;;;;;;;2.30;1.37;;;5.60;99.90;5.00;101698.00;;;;4890923;28;104424;-67
2024/02/02 00:12:11;;;;;;;2.20;1.30;;;5.10;99.90;5.00;101693.00;;;;4889799;28;99868;-66
2024/02/02 00:14:39;;;;;;;2.23;1.07;;;5.20;99.90;5.00;101696.00;;;;4890843;28;92639;-67
2024/02/02 00:17:05;;;;;;;1.73;1.10;;;5.10;99.90;5.00;101700.00;;;;4889658;28;93080;-66
2024/02/02 00:19:31;;;;;;;3.77;1.13;;;6.10;99.90;4.90;101686.00;;;;4888567;28;123207;-67
2024/02/02 00:21:57;;;;;;;2.30;1.10;;;5.10;99.90;4.90;101686.00;;;;4899986;28;125167;-66
2024/02/02 00:24:23;;;;;;;3.87;1.87;;;5.90;99.90;4.90;101687.00;;;;4888929;28;110548;-66
2024/02/02 00:26:48;;;;;;;5.07;1.90;;;5.40;99.90;4.90;101688.00;;;;4888663;28;107255;-66
2024/02/02 00:29:14;;;;;;;2.97;1.37;;;6.10;99.90;4.90;101687.00;;;;4888524;28;118409;-67
2024/02/02 00:31:41;;;;;;;5.50;1.23;;;4.90;99.90;4.90;101676.00;;;;4890188;28;110746;-66
2024/02/02 00:34:07;;;;;;;3.07;1.40;;;5.20;99.90;4.90;101683.00;;;;4887092;28;92795;-66
2024/02/02 00:36:33;;;;;;;5.83;1.93;;;6.10;99.90;4.90;101688.00;;;;4887876;28;93498;-66
2024/02/02 00:38:58;;;;;;;4.07;1.20;;;5.90;99.90;4.90;101696.00;;;;4890633;28;112512;-67
2024/02/02 00:41:24;;;;;;;4.50;1.20;;;5.10;99.90;4.90;101691.00;;;;4889241;28;92843;-66
2024/02/02 00:43:50;;;;;;;1.53;1.10;;;5.90;99.90;4.90;101695.00;;;;4886107;28;92815;-67
2024/02/02 00:46:15;;;;;;;4.40;1.43;;;5.10;99.90;4.90;101694.00;;;;4890056;28;98489;-67
2024/02/02 00:48:41;;;;;;;6.03;1.47;;;5.00;99.90;4.80;101706.00;;;;4889611;28;122248;-65
2024/02/02 00:51:07;;;;;;;3.60;1.83;;;5.30;99.90;4.80;101699.00;;;;4889366;28;93938;-66
2024/02/02 00:53:34;;;;;;;4.80;1.70;;;5.90;99.90;4.80;101701.00;;;;4889148;28;92930;-66
2024/02/02 00:56:00;;;;;;;8.73;1.60;;;5.90;99.90;4.80;101694.00;;;;4891424;28;93074;-67
2024/02/02 00:58:25;;;;;;;5.73;1.40;;;5.00;99.90;4.80;101694.00;;;;4884011;28;95704;-67
2024/02/02 01:00:52;;;;;;;2.50;1.50;;;5.00;99.90;4.80;101695.00;;;;4887708;28;122569;-66
2024/02/02 01:03:17;;;;;;;2.10;1.37;;;4.90;99.90;4.80;101683.00;;;;4886673;28;109217;-67
2024/02/02 01:05:43;;;;;;;3.23;1.80;;;5.70;99.90;4.80;101684.00;;;;4887278;28;105714;-67
2024/02/02 01:08:08;;;;;;;3.57;1.20;;;5.00;99.90;4.80;101682.00;;;;4886410;28;121321;-66
2024/02/02 01:10:34;;;;;;;4.17;1.87;;;5.00;99.90;4.80;101674.00;;;;4887099;28;122225;-67
2024/02/02 01:13:00;;;;;;;7.40;1.90;;;6.00;99.90;4.80;101681.00;;;;4889152;28;109788;-66
2024/02/02 01:15:25;;;;;;;5.17;0.90;;;5.90;99.90;4.80;101682.00;;;;4887331;28;108609;-66
2024/02/02 01:17:52;;;;;;;3.03;1.77;;;5.90;99.90;4.80;101682.00;;;;4888129;28;93540;-68
2024/02/02 01:20:17;;;;;;;4.50;1.47;;;4.90;99.90;4.80;101682.00;;;;4900832;28;94438;-65
2024/02/02 01:22:44;;;;;;;3.03;1.50;;;4.90;99.90;4.80;101681.00;;;;4887832;28;107944;-66
2024/02/02 01:25:11;;;;;;;3.73;1.37;;;5.90;99.90;4.80;101676.00;;;;4889782;28;93028;-66
2024/02/02 01:27:37;;;;;;;13.60;1.93;;;5.10;99.90;4.80;101674.00;;;;4887970;28;93310;-66
2024/02/02 01:30:03;;;;;;;7.00;1.33;;;5.50;99.90;4.80;101683.00;;;;4888714;28;109936;-66
2024/02/02 01:32:29;;;;;;;2.73;1.50;;;5.00;99.90;4.80;101675.00;;;;4888167;28;94479;-66
2024/02/02 01:34:54;;;;;;;5.27;2.13;;;5.00;99.90;4.80;101679.00;;;;4888050;28;107862;-66
2024/02/02 01:37:20;;;;;;;9.13;1.60;;;4.90;99.90;4.80;101679.00;;;;4886874;28;122781;-66
2024/02/02 01:39:46;;;;;;;1.60;1.17;;;5.10;99.90;4.80;101679.00;;;;4887721;28;122538;-66
2024/02/02 01:42:12;;;;;;;3.37;1.30;;;5.20;99.90;4.80;101678.00;;;;4890040;28;109961;-66
2024/02/02 01:44:38;;;;;;;8.53;1.57;;;5.00;99.90;4.80;101684.00;;;;4888079;28;93027;-65
2024/02/02 01:47:03;;;;;;;3.63;1.63;;;5.20;99.90;4.80;101695.00;;;;4887786;28;93265;-67
2024/02/02 01:49:29;;;;;;;4.23;1.93;;;5.20;99.90;4.80;101682.00;;;;4888112;28;93358;-67
2024/02/02 01:51:56;;;;;;;2.23;1.03;;;5.00;99.90;4.80;101690.00;;;;4887538;28;110221;-66
2024/02/02 01:54:21;;;;;;;2.77;1.13;;;5.00;99.90;4.80;101690.00;;;;4885515;28;99985;-65
2024/02/02 01:56:47;;;;;;;6.27;2.67;;;5.80;99.90;4.80;101685.00;;;;4887776;28;121886;-67
2024/02/02 01:59:14;;;;;;;3.57;1.87;;;5.60;99.90;4.80;101685.00;;;;4887661;28;115472;-67
2024/02/02 02:01:41;;;;;;;4.90;1.53;;;4.90;99.90;4.80;101689.00;;;;4879463;28;102584;-66
2024/02/02 02:04:07;;;;;;;9.27;2.50;;;5.00;99.90;4.80;101690.00;;;;4889598;28;93104;-66
2024/02/02 02:06:33;;;;;;;18.83;1.57;;;5.60;99.90;4.80;101686.00;;;;4886929;28;122396;-65
2024/02/02 02:08:59;;;;;;;3.33;1.27;;;5.10;99.90;4.80;101677.00;;;;4902800;28;93824;-66
2024/02/02 02:11:24;;;;;;;2.90;1.53;;;5.90;99.90;4.80;101681.00;;;;4886299;28;109331;-66
2024/02/02 02:13:50;;;;;;;5.47;1.23;;;5.00;99.90;4.80;101679.00;;;;4888345;28;108526;-66
2024/02/02 02:16:16;;;;;;;8.33;1.93;;;5.10;99.90;4.80;101690.00;;;;4890963;28;122704;-66
2024/02/02 02:18:41;;;;;;;6.07;1.73;;;4.90;99.90;4.80;101673.00;;;;4893554;28;93860;-67
2024/02/02 02:21:27;;;;;;;2.47;1.43;;;5.00;99.90;4.80;101671.00;;;;4904083;28;93293;-66
2024/02/02 02:23:54;;;;;;;3.43;1.30;;;5.60;99.90;4.80;101679.00;;;;4890950;28;101686;-66
2024/02/02 02:26:21;;;;;;;4.27;1.60;;;5.10;99.90;4.80;101666.00;;;;4891851;28;94018;-67
2024/02/02 02:28:48;;;;;;;5.00;2.13;;;6.00;99.90;4.80;101672.00;;;;4903730;28;93256;-66
2024/02/02 02:31:15;;;;;;;2.20;2.00;;;5.50;99.90;4.80;101677.00;;;;4890489;28;95185;-67
2024/02/02 02:33:42;;;;;;;1.60;0.93;;;5.00;99.90;4.80;101674.00;;;;4892792;28;93040;-67
2024/02/02 02:36:11;;;;;;;2.40;1.00;;;6.00;99.90;4.80;101683.00;;;;4892742;28;94348;-67
2024/02/02 02:38:36;;;;;;;2.40;1.40;;;5.90;99.90;4.80;101668.00;;;;4891489;28;115603;-66
2024/02/02 02:41:02;;;;;;;6.60;1.33;;;5.00;99.90;4.80;101678.00;;;;4905244;28;109737;-67
2024/02/02 02:43:28;;;;;;;6.87;1.73;;;5.00;99.90;4.80;101673.00;;;;4892589;28;106973;-67
2024/02/02 02:45:54;;;;;;;6.27;1.37;;;5.50;99.90;4.80;101682.00;;;;4892766;28;92815;-66
2024/02/02 02:48:21;;;;;;;6.57;1.37;;;5.00;99.90;4.80;101684.00;;;;4889310;28;122242;-66
2024/02/02 02:50:47;;;;;;;4.53;1.43;;;4.90;99.90;4.80;101675.00;;;;4891361;28;105709;-66
2024/02/02 02:53:12;;;;;;;8.13;1.50;;;5.00;99.90;4.80;101682.00;;;;4891415;28;92817;-67
2024/02/02 02:55:38;;;;;;;5.47;1.53;;;5.00;99.90;4.80;101685.00;;;;4904122;28;121227;-66
2024/02/02 02:58:04;;;;;;;4.50;2.10;;;5.90;99.90;4.80;101688.00;;;;4890426;28;120761;-66
2024/02/02 03:00:31;;;;;;;2.97;1.57;;;5.90;99.90;4.80;101683.00;;;;4890845;28;110689;-67
2024/02/02 03:02:58;;;;;;;2.07;1.13;;;4.90;99.90;4.80;101677.00;;;;4892646;28;92903;-66
2024/02/02 03:05:28;;;;;;;7.47;1.20;;;5.00;99.90;4.70;101671.00;;;;4893108;28;104176;-65
2024/02/02 03:07:54;;;;;;;9.03;1.03;;;4.90;99.90;4.70;101682.00;;;;4891752;28;93071;-68
2024/02/02 03:10:22;;;;;;;13.43;1.30;;;5.40;99.90;4.70;101682.00;;;;4888341;28;97422;-67
2024/02/02 03:12:47;;;;;;;5.50;2.20;;;4.90;99.90;4.70;101676.00;;;;4889349;28;93747;-66
2024/02/02 03:15:13;;;;;;;2.20;1.37;;;5.60;99.90;4.70;101680.00;;;;4890159;28;113012;-66
2024/02/02 03:17:39;;;;;;;2.57;1.47;;;4.80;99.90;4.70;101667.00;;;;4891820;28;93209;-66
2024/02/02 03:20:08;;;;;;;3.90;1.60;;;4.80;99.90;4.70;101673.00;;;;4890029;28;110582;-66
2024/02/02 03:22:34;;;;;;;4.50;1.53;;;5.00;99.90;4.70;101673.00;;;;4890522;28;93034;-67
2024/02/02 03:25:00;;;;;;;8.37;2.13;;;4.80;99.90;4.70;101669.00;;;;4887825;28;124088;-65
2024/02/02 03:27:25;;;;;;;4.67;1.90;;;4.80;99.90;4.60;101649.00;;;;4883724;28;122562;-67
2024/02/02 03:29:51;;;;;;;9.73;1.50;;;5.70;99.90;4.60;101665.00;;;;4893225;28;109711;-66
2024/02/02 03:32:16;;;;;;;2.67;1.70;;;4.80;99.90;4.60;101668.00;;;;4889035;28;102678;-66
2024/02/02 03:34:42;;;;;;;15.27;1.87;;;4.80;99.90;4.60;101661.00;;;;4891888;28;104774;-66
2024/02/02 03:37:08;;;;;;;6.23;2.47;;;4.80;99.90;4.60;101656.00;;;;4887893;28;122225;-66
2024/02/02 03:39:34;;;;;;;3.50;1.23;;;5.80;99.90;4.60;101665.00;;;;4890156;28;109362;-66
2024/02/02 03:41:59;;;;;;;1.57;1.33;;;4.80;99.90;4.60;101673.00;;;;4892943;28;94360;-67
2024/02/02 03:44:25;;;;;;;5.70;1.50;;;4.80;99.90;4.60;101670.00;;;;4887780;28;121844;-66
2024/02/02 03:46:51;;;;;;;12.43;2.23;;;4.80;99.90;4.60;101682.00;;;;4890978;28;122312;-67
2024/02/02 03:49:16;;;;;;;9.40;1.77;;;5.10;99.90;4.60;101689.00;;;;4889371;28;110503;-67
2024/02/02 03:51:42;;;;;;;2.00;1.43;;;4.80;99.90;4.60;101684.00;;;;4885372;28;108002;-66
2024/02/02 03:54:08;;;;;;;4.80;1.43;;;4.80;99.90;4.60;101687.00;;;;4890052;28;122721;-66
2024/02/02 03:56:33;;;;;;;2.30;1.10;;;4.80;99.90;4.60;101684.00;;;;4889168;28;119987;-66
2024/02/02 03:58:59;;;;;;;5.67;1.50;;;4.80;99.90;4.60;101691.00;;;;4889344;28;108313;-66
2024/02/02 04:01:25;;;;;;;4.07;2.07;;;5.60;99.90;4.60;101693.00;;;;4888410;28;107844;-66
2024/02/02 04:03:50;;;;;;;9.10;1.20;;;4.90;99.90;4.60;101684.00;;;;4887343;28;95437;-66
2024/02/02 04:06:16;;;;;;;4.73;2.07;;;4.80;99.90;4.60;101692.00;;;;4888397;28;123626;-66
2024/02/02 04:08:42;;;;;;;4.17;1.80;;;5.70;99.90;4.60;101686.00;;;;4903009;28;108970;-66
2024/02/02 04:11:08;;;;;;;4.43;1.57;;;4.70;99.90;4.60;101686.00;;;;4892541;28;92974;-67
2024/02/02 04:13:34;;;;;;;4.73;2.47;;;5.70;99.90;4.60;101701.00;;;;4889550;28;94883;-66
2024/02/02 04:16:00;;;;;;;3.30;1.83;;;5.80;99.90;4.70;101703.00;;;;4889845;28;93835;-66
2024/02/02 04:18:26;;;;;;;5.63;1.73;;;4.80;99.90;4.60;101692.00;;;;4889340;28;92628;-67
2024/02/02 04:20:53;;;;;;;1.93;1.57;;;4.80;99.90;4.70;101703.00;;;;4891731;28;92783;-66
2024/02/02 04:23:19;;;;;;;6.93;2.13;;;5.20;99.90;4.70;101704.00;;;;4892417;28;92929;-67
2024/02/02 04:25:45;;;;;;;4.80;2.30;;;4.80;99.90;4.70;101691.00;;;;4891491;28;113898;-66
2024/02/02 04:28:10;;;;;;;3.43;1.20;;;5.70;99.90;4.70;101696.00;;;;4889654;28;111231;-66
2024/02/02 04:30:39;;;;;;;4.03;2.53;;;5.50;99.90;4.70;101694.00;;;;4889091;28;92938;-66
2024/02/02 04:33:05;;;;;;;3.07;1.40;;;4.80;99.90;4.70;101700.00;;;;4888228;28;124154;-65
2024/02/02 04:35:34;;;;;;;7.43;1.90;;;4.80;99.90;4.70;101699.00;;;;4889567;28;123002;-66
2024/02/02 04:38:01;;;;;;;4.57;2.07;;;4.80;99.90;4.70;101698.00;;;;4904335;28;92858;-66
2024/02/02 04:40:27;;;;;;;5.97;2.33;;;4.90;99.90;4.70;101688.00;;;;4890906;28;93059;-67
2024/02/02 04:42:52;;;;;;;2.93;1.30;;;4.80;99.90;4.70;101687.00;;;;4888716;28;122831;-67
2024/02/02 04:45:18;;;;;;;2.23;1.23;;;5.10;99.90;4.70;101683.00;;;;4887790;28;121199;-67
2024/02/02 04:47:44;;;;;;;7.80;2.10;;;5.70;99.90;4.60;101693.00;;;;4889189;28;110397;-67
2024/02/02 04:50:09;;;;;;;5.30;2.13;;;4.80;99.90;4.60;101683.00;;;;4888222;28;107613;-67
2024/02/02 04:52:35;;;;;;;3.03;1.87;;;4.90;99.90;4.60;101682.00;;;;4889760;28;107937;-67
2024/02/02 04:55:01;;;;;;;2.03;1.50;;;4.80;99.90;4.60;101685.00;;;;4889227;28;123376;-67
2024/02/02 04:57:27;;;;;;;2.83;1.37;;;5.60;99.90;4.60;101694.00;;;;4889143;28;93215;-67
2024/02/02 04:59:54;;;;;;;3.40;1.93;;;5.50;99.90;4.50;101689.00;;;;4889378;28;107231;-67
2024/02/02 05:02:20;;;;;;;7.07;1.77;;;5.40;99.90;4.50;101701.00;;;;4888781;28;105567;-67
2024/02/02 05:04:45;;;;;;;7.63;2.63;;;5.50;99.90;4.50;101699.00;;;;4889537;28;116907;-67
2024/02/02 05:07:11;;;;;;;5.07;2.13;;;4.70;99.90;4.50;101689.00;;;;4889789;28;108972;-67
2024/02/02 05:09:37;;;;;;;8.77;2.43;;;5.10;99.90;4.40;101696.00;;;;4890754;28;99359;-67
2024/02/02 05:12:02;;;;;;;5.57;1.83;;;4.70;99.90;4.40;101703.00;;;;4887732;28;122078;-67
2024/02/02 05:14:28;;;;;;;4.57;1.60;;;4.70;99.90;4.40;101691.00;;;;4887849;28;112321;-67
2024/02/02 05:16:54;;;;;;;4.17;1.73;;;4.60;99.90;4.40;101681.00;;;;4888589;28;110614;-67
2024/02/02 05:19:19;;;;;;;4.00;1.70;;;4.60;99.90;4.40;101675.00;;;;4887775;28;106944;-66
2024/02/02 05:21:45;;;;;;;15.60;2.10;;;4.70;99.90;4.40;101675.00;;;;4888743;28;121160;-67
2024/02/02 05:24:11;;;;;;;5.03;1.90;;;4.60;99.90;4.30;101674.00;;;;4889907;28;123034;-67
2024/02/02 05:26:36;;;;;;;10.60;1.97;;;4.90;99.90;4.30;101674.00;;;;4891714;28;93034;-67
2024/02/02 05:29:02;;;;;;;6.63;1.43;;;4.50;99.90;4.30;101677.00;;;;4892599;28;92932;-66
2024/02/02 05:31:28;;;;;;;7.43;2.70;;;4.40;99.90;4.30;101674.00;;;;4890294;28;120846;-66
2024/02/02 05:33:54;;;;;;;5.17;1.73;;;4.70;99.90;4.30;101663.00;;;;4889454;28;93187;-67
2024/02/02 05:36:19;;;;;;;7.33;2.77;;;5.10;99.90;4.30;101673.00;;;;4889742;28;110407;-66
2024/02/02 05:38:45;;;;;;;6.23;2.57;;;4.50;99.90;4.30;101662.00;;;;4887173;28;109226;-66
2024/02/02 05:41:11;;;;;;;4.03;1.83;;;4.50;99.90;4.30;101659.00;;;;4886985;28;123266;-66
2024/02/02 05:43:36;;;;;;;5.27;2.17;;;4.50;99.90;4.20;101667.00;;;;4902018;28;93788;-66
2024/02/02 05:46:05;;;;;;;3.80;1.77;;;4.50;99.90;4.20;101664.00;;;;4889333;28;93447;-66
2024/02/02 05:48:31;;;;;;;6.60;2.40;;;4.40;99.90;4.20;101659.00;;;;4888400;28;92895;-66
2024/02/02 05:50:56;;;;;;;5.50;2.50;;;3.90;99.90;4.20;101666.00;;;;4891358;28;94270;-66
2024/02/02 05:53:22;;;;;;;4.33;2.50;;;4.40;99.90;4.20;101660.00;;;;4892101;28;93105;-66
2024/02/02 05:55:48;;;;;;;8.10;3.40;;;4.40;99.90;4.20;101654.00;;;;4892393;28;112006;-65
2024/02/02 05:58:13;;;;;;;10.07;3.37;;;4.40;99.90;4.20;101655.00;;;;4890998;28;109368;-66
2024/02/02 06:00:39;;;;;;;8.90;3.67;;;5.30;99.90;4.20;101644.00;;;;4884323;28;121537;-66
2024/02/02 06:03:05;;;;;;;6.00;3.23;;;4.40;99.90;4.20;101640.00;;;;4891012;28;98701;-66
2024/02/02 06:05:32;;;;;;;5.80;2.57;;;4.40;99.90;4.10;101631.00;;;;4888255;28;108109;-66
2024/02/02 06:08:02;;;;;;;9.93;2.93;;;4.40;99.90;4.10;101645.00;;;;4890386;28;92999;-66
2024/02/02 06:10:27;;;;;;;11.20;3.50;;;4.40;99.90;4.10;101646.00;;;;4891210;28;93935;-66
2024/02/02 06:12:54;;;;;;;3.73;2.87;;;4.30;99.90;4.00;101642.00;;;;4891464;28;93336;-67
2024/02/02 06:15:20;;;;;;;5.97;3.47;;;4.30;99.90;4.00;101639.00;;;;4895178;28;92867;-66
2024/02/02 06:17:45;;;;;;;5.50;3.20;;;4.20;99.90;4.00;101650.00;;;;4892029;28;109061;-65
2024/02/02 06:20:12;;;;;;;5.93;4.17;;;5.00;99.90;4.00;101630.00;;;;4892583;28;121439;-66
2024/02/02 06:22:38;;;;;;;6.23;3.40;;;4.30;99.90;4.00;101638.00;;;;4892252;28;92875;-65
2024/02/02 06:25:04;;;;;;;8.70;3.73;;;4.30;99.90;4.00;101629.00;;;;4902515;28;109996;-66
2024/02/02 06:27:30;;;;;;;6.47;3.93;;;4.20;99.90;4.00;101638.00;;;;4890400;28;99957;-65
2024/02/02 06:29:58;;;;;;;4.93;3.10;;;4.20;99.90;4.00;101631.00;;;;4892754;28;93995;-65
2024/02/02 06:32:24;;;;;;;6.23;3.60;;;4.20;99.90;4.00;101643.00;;;;4890724;28;96069;-66
2024/02/02 06:34:55;;;;;;;8.63;3.77;;;4.70;99.90;4.00;101645.00;;;;4892237;28;93333;-66
2024/02/02 06:37:25;;;;;;;13.67;4.90;;;4.20;99.90;4.00;101645.00;;;;4889589;28;93070;-66
2024/02/02 06:39:52;;;;;;;7.27;4.20;;;4.30;99.90;4.10;101643.00;;;;4903008;28;93284;-67
2024/02/02 06:42:22;;;;;;;11.27;3.97;;;4.30;99.90;4.10;101632.00;;;;4904646;28;92803;-65
2024/02/02 06:44:50;;;;;;;6.80;3.53;;;4.30;99.90;4.10;101636.00;;;;4907165;28;92272;-66
2024/02/02 06:47:16;;;;;;;5.60;2.90;;;4.30;99.90;4.10;101644.00;;;;4903676;28;93201;-65
2024/02/02 06:49:42;;;;;;;8.90;3.90;;;4.30;99.90;4.00;101649.00;;;;4891345;28;94233;-66
2024/02/02 06:52:08;;;;;;;8.67;3.10;;;4.30;99.90;4.00;101648.00;;;;4889093;28;93746;-65
2024/02/02 06:54:34;;;;;;;6.93;3.50;;;4.30;99.90;4.00;101655.00;;;;4890573;28;96313;-65
2024/02/02 06:56:59;;;;;;;3.27;2.97;;;4.20;99.90;4.00;101650.00;;;;4892520;28;108532;-67
2024/02/02 06:59:25;;;;;;;8.40;3.80;;;4.20;99.90;4.00;101664.00;;;;4890984;28;122536;-67
2024/02/02 07:01:51;;;;;;;10.23;3.70;;;4.20;99.90;4.00;101664.00;;;;4889833;28;122020;-67
2024/02/02 07:04:17;;;;;;;11.13;3.67;;;4.20;99.90;4.00;101650.00;;;;4890983;28;110778;-67
2024/02/02 07:06:46;;;;;;;3.83;3.00;;;4.20;99.90;4.00;101653.00;;;;4890867;28;108484;-67
2024/02/02 07:09:30;;;;;;;5.67;3.17;;;5.20;99.90;4.00;101659.00;;;;4891471;28;93360;-67
2024/02/02 07:12:08;;;;;;;13.67;3.60;;;4.30;99.90;4.00;101657.00;;;;4889444;28;92980;-69
2024/02/02 07:14:49;;;;;;;5.00;3.23;;;4.20;99.90;3.90;101654.00;;;;4890913;28;92930;-66
2024/02/02 07:17:37;;;;;;;12.80;3.50;;;4.20;99.90;3.90;101662.00;;;;4889999;28;93974;-67
2024/02/02 07:20:35;;;;;;;4.93;3.93;;;4.20;99.90;3.90;101654.00;;;;4890453;28;92889;-66
2024/02/02 07:23:01;;;;;;;7.67;3.53;;;4.10;99.90;3.90;101655.00;;;;4890317;28;92844;-66
2024/02/02 07:25:33;;;;;;;7.03;4.10;;;4.10;99.90;3.90;101662.00;;;;4894286;28;92858;-67
2024/02/02 07:28:07;;;;;;;7.37;3.30;;;3.70;99.90;3.90;101663.00;;;;4881297;28;100328;-67
2024/02/02 07:30:55;;;;;;;11.00;4.13;;;4.00;99.90;3.90;101655.00;;;;4888570;28;93150;-67
2024/02/02 07:33:25;;;;;;;11.60;3.87;;;4.00;99.90;3.90;101658.00;;;;4889063;28;93062;-66
2024/02/02 07:35:52;;;;;;;5.20;3.03;;;3.30;99.90;4.00;101660.00;;;;4892837;28;96517;-66
2024/02/02 07:38:47;;;;;;;6.27;3.47;;;4.20;99.90;4.00;101654.00;;;;4890078;28;93550;-67
2024/02/02 07:41:24;;;;;;;11.47;3.90;;;4.10;99.90;4.10;101652.00;;;;4891510;28;93478;-67
2024/02/02 07:44:01;;;;;;;7.90;4.33;;;4.30;99.90;4.10;101651.00;;;;4890828;28;95677;-68
2024/02/02 07:46:27;;;;;;;8.93;3.90;;;4.40;99.90;4.20;101636.00;;;;4890986;28;93108;-66
2024/02/02 07:48:54;;;;;;;11.77;3.97;;;4.40;99.90;4.20;101647.00;;;;4891449;28;92949;-68
2024/02/02 07:51:22;;;;;;;4.37;2.97;;;4.40;99.90;4.20;101640.00;;;;4891056;28;122006;-66
2024/02/02 07:53:49;;;;;;;16.17;3.37;;;4.40;99.90;4.30;101647.00;;;;4890420;28;93502;-66
2024/02/02 07:56:17;;;;;;;8.87;3.50;;;4.50;99.90;4.40;101633.00;;;;4906204;28;93943;-67
2024/02/02 07:58:43;;;;;;;13.60;3.90;;;4.50;99.90;4.50;101642.00;;;;4893595;28;92864;-67
2024/02/02 08:01:09;;;;;;;12.50;3.80;;;5.50;99.90;4.60;101647.00;;;;4890980;28;94166;-66
2024/02/02 08:03:36;;;;;;;8.60;3.77;;;4.70;99.90;4.70;101637.00;;;;4888720;28;92917;-66
2024/02/02 08:06:02;;;;;;;7.17;3.10;;;4.80;99.90;4.80;101625.00;;;;4891841;28;92917;-66
2024/02/02 08:08:31;;;;;;;6.30;4.00;;;5.00;99.90;4.90;101621.00;;;;4891176;28;93850;-66
2024/02/02 08:10:58;;;;;;;4.57;2.63;;;4.90;99.90;4.90;101630.00;;;;4890798;28;93223;-67
2024/02/02 08:13:26;;;;;;;12.00;4.00;;;5.50;99.90;5.00;101624.00;;;;4889530;28;93682;-66
2024/02/02 08:15:52;;;;;;;5.97;3.63;;;5.60;99.90;5.00;101616.00;;;;4892456;28;92979;-66
2024/02/02 08:18:18;;;;;;;4.27;3.13;;;5.30;99.90;5.10;101603.00;;;;4890411;28;92849;-67
2024/02/02 08:20:45;;;;;;;5.53;3.53;;;5.30;99.90;5.10;101613.00;;;;4891250;28;93732;-68
2024/02/02 08:23:10;;;;;;;6.67;3.67;;;5.30;99.90;5.20;101595.00;;;;4889825;28;94013;-66
2024/02/02 08:25:36;;;;;;;7.73;3.60;;;5.40;99.90;5.30;101597.00;;;;4889544;28;111206;-67
2024/02/02 08:28:02;;;;;;;12.17;4.00;;;5.40;99.90;5.30;101596.00;;;;4889300;28;93153;-66
2024/02/02 08:30:28;;;;;;;4.80;3.30;;;5.50;99.90;5.40;101588.00;;;;4888606;28;93985;-68
2024/02/02 08:32:53;;;;;;;6.07;3.53;;;5.60;99.90;5.50;101582.00;;;;4885992;28;96739;-67
2024/02/02 08:35:24;;;;;;;4.13;2.63;;;5.60;99.90;5.60;101573.00;;;;4902772;28;109820;-66
2024/02/02 08:38:00;;;;;;;8.83;3.77;;;6.40;99.90;5.70;101580.00;;;;4890183;28;92936;-67
2024/02/02 08:40:43;;;;;;;6.30;3.07;;;5.90;99.90;5.80;101575.00;;;;4887468;28;93177;-68
2024/02/02 08:43:20;;;;;;;8.47;4.23;;;6.40;99.90;5.90;101571.00;;;;4888814;28;93118;-67
2024/02/02 08:46:09;;;;;;;14.63;4.57;;;6.30;99.90;6.10;101558.00;;;;4890507;28;92853;-66
2024/02/02 08:48:49;;;;;;;9.37;3.27;;;6.20;99.90;6.30;101574.00;;;;4887007;28;93278;-66
2024/02/02 08:51:21;;;;;;;4.70;3.73;;;6.70;99.90;6.50;101575.00;;;;4889814;28;92449;-67
2024/02/02 08:54:00;;;;;;;14.93;4.10;;;6.50;99.90;6.70;101571.00;;;;4890316;28;92888;-68
2024/02/02 08:56:26;;;;;;;5.17;3.00;;;6.80;99.90;6.70;101563.00;;;;4900845;28;102543;-67
2024/02/02 08:58:53;;;;;;;9.93;3.27;;;7.20;99.90;6.70;101567.00;;;;4892618;28;109329;-66
2024/02/02 09:01:43;;;;;;;5.63;3.20;;;7.30;99.90;6.70;101568.00;;;;4901919;28;93857;-67
2024/02/02 09:04:46;;;;;;;5.83;2.97;;;6.90;99.90;6.60;101564.00;;;;4903169;28;93157;-67
2024/02/02 09:07:15;;;;;;;11.13;3.50;;;6.30;99.90;6.50;101554.00;;;;4888982;28;93314;-66
2024/02/02 09:09:41;;;;;;;5.23;3.13;;;6.70;99.90;6.50;101561.00;;;;4889282;28;108159;-66
2024/02/02 09:12:07;;;;;;;8.57;3.87;;;6.60;99.90;6.50;101558.00;;;;4888942;28;122657;-68
2024/02/02 09:14:33;;;;;;;4.07;3.20;;;6.60;99.90;6.50;101551.00;;;;4889691;28;92848;-68
2024/02/02 09:16:59;;;;;;;6.80;3.20;;;6.60;99.90;6.40;101563.00;;;;4891177;28;92441;-67
2024/02/02 09:19:31;;;;;;;5.67;3.03;;;6.60;99.90;6.40;101551.00;;;;4890344;28;98611;-67
2024/02/02 09:21:59;;;;;;;6.17;2.63;;;6.50;99.90;6.40;101559.00;;;;4901673;28;92985;-67
2024/02/02 09:24:39;;;;;;;14.17;3.83;;;6.50;99.90;6.40;101555.00;;;;4890486;28;94486;-67
2024/02/02 09:27:19;;;;;;;6.97;3.53;;;6.70;99.90;6.40;101543.00;;;;4893751;28;93031;-67
2024/02/02 09:29:49;;;;;;;10.07;3.13;;;6.60;99.90;6.40;101543.00;;;;4905163;28;93008;-68
2024/02/02 09:32:16;;;;;;;6.40;3.53;;;6.50;99.90;6.40;101523.00;;;;4903972;28;93452;-67
2024/02/02 09:34:43;;;;;;;9.90;3.00;;;6.90;99.90;6.50;101526.00;;;;4892861;28;94199;-68
2024/02/02 09:37:25;;;;;;;7.23;3.23;;;6.70;99.90;6.50;101526.00;;;;4892521;28;92922;-66
2024/02/02 09:39:54;;;;;;;9.53;3.27;;;6.60;99.90;6.60;101529.00;;;;4905985;28;93189;-67
2024/02/02 09:42:47;;;;;;;4.33;2.47;;;6.70;99.90;6.60;101534.00;;;;4892817;28;92856;-67
2024/02/02 09:45:34;;;;;;;7.80;3.10;;;6.80;99.90;6.60;101533.00;;;;4892083;28;93198;-66
2024/02/02 09:48:39;;;;;;;8.83;2.90;;;6.80;99.90;6.70;101536.00;;;;4905287;28;99912;-66
2024/02/02 09:51:29;;;;;;;8.20;3.33;;;6.80;99.90;6.70;101525.00;;;;4892779;28;94022;-67
2024/02/02 09:54:42;;;;;;;5.23;2.60;;;6.80;99.90;6.70;101532.00;;;;4890231;28;112272;-68
2024/02/02 09:57:43;;;;;;;4.83;3.27;;;6.90;99.90;6.70;101530.00;;;;4890714;28;93846;-67
2024/02/02 10:00:57;;;;;;;10.37;3.57;;;6.90;99.90;6.70;101523.00;;;;4904702;28;93023;-67
2024/02/02 10:04:17;;;;;;;9.63;2.83;;;6.90;99.90;6.70;101520.00;;;;4890632;28;93060;-66
2024/02/02 10:07:01;;;;;;;10.40;3.73;;;6.90;99.90;6.80;101522.00;;;;4890667;28;93033;-66
2024/02/02 10:10:00;;;;;;;6.60;2.83;;;7.10;99.90;6.80;101510.00;;;;4892930;28;92999;-67
2024/02/02 10:12:59;;;;;;;7.20;2.43;;;7.00;99.90;6.90;101509.00;;;;4904637;28;95261;-67
2024/02/02 10:15:59;;;;;;;6.20;2.43;;;7.10;99.90;6.90;101513.00;;;;4905505;28;92967;-67
2024/02/02 10:18:49;;;;;;;6.63;2.70;;;7.10;99.90;7.00;101500.00;;;;4888688;28;93772;-67
2024/02/02 10:21:51;;;;;;;4.17;2.20;;;7.00;99.90;6.90;101510.00;;;;4894695;28;93933;-67
2024/02/02 10:24:52;;;;;;;4.43;2.67;;;7.20;99.90;6.90;101512.00;;;;4893615;28;93684;-67
2024/02/02 10:27:41;;;;;;;6.37;2.43;;;7.10;99.90;6.80;101515.00;;;;4893161;28;97928;-66
2024/02/02 10:30:37;;;;;;;4.33;2.30;;;7.00;99.90;6.90;101509.00;;;;4888233;28;115239;-67
2024/02/02 10:33:46;;;;;;;3.70;1.73;;;7.00;99.90;6.80;101471.00;;;;4890472;28;93005;-67
2024/02/02 10:36:14;;;;;;;5.80;3.00;;;7.10;99.90;6.80;101465.00;;;;4904647;28;94470;-67
2024/02/02 10:39:13;;;;;;;5.20;2.57;;;7.00;99.90;6.80;101464.00;;;;4892178;28;93175;-67
2024/02/02 10:42:30;;;;;;;6.13;2.10;;;7.00;99.90;6.80;101464.00;;;;4893932;28;92266;-67
2024/02/02 10:45:20;;;;;;;6.70;2.37;;;7.00;99.90;6.70;101454.00;;;;4892226;28;92979;-67
2024/02/02 10:48:33;;;;;;;5.37;2.60;;;6.90;99.90;6.70;101454.00;;;;4904827;28;102498;-67
2024/02/02 10:51:43;;;;;;;8.10;2.53;;;6.90;99.90;6.70;101458.00;;;;4891469;28;95385;-68
2024/02/02 10:54:53;;;;;;;3.07;2.07;;;6.90;99.90;6.60;101472.00;;;;4889427;28;93083;-66
2024/02/02 10:57:36;;;;;;;9.27;2.80;;;6.90;99.90;6.60;101481.00;;;;4885602;28;93212;-67
2024/02/02 11:00:21;;;;;;;6.93;2.77;;;7.20;99.90;6.50;101471.00;;;;4881879;28;93049;-67
2024/02/02 11:03:12;;;;;;;4.47;2.70;;;6.70;99.90;6.40;101468.00;;;;4891560;28;92869;-66
2024/02/02 11:06:19;;;;;;;3.77;1.83;;;6.70;99.90;6.40;101461.00;;;;4891095;28;93067;-67
2024/02/02 11:08:55;;;;;;;7.07;2.97;;;6.60;99.90;6.50;101488.00;;;;4889431;28;93651;-67
2024/02/02 11:11:25;;;;;;;3.57;2.50;;;6.60;99.90;6.50;101471.00;;;;4892003;28;92159;-66
2024/02/02 11:14:38;;;;;;;4.50;2.07;;;6.60;99.90;6.50;101460.00;;;;4890097;28;92914;-67